createdAt,value
2018-09-11T00:02:08.636Z,16.80
2018-09-11T00:04:37.075Z,16.80
2018-09-11T00:07:05.506Z,16.90
2018-09-11T00:09:34.047Z,16.90
2018-09-11T00:12:02.596Z,17.00
2018-09-11T00:14:31.103Z,17.00
2018-09-11T00:17:00.539Z,17.00
2018-09-11T00:19:29.020Z,16.90
2018-09-11T00:21:57.708Z,16.90
2018-09-11T00:24:26.276Z,16.90
2018-09-11T00:26:54.836Z,16.90
2018-09-11T00:29:24.202Z,16.90
2018-09-11T00:31:52.926Z,16.90
2018-09-11T00:34:33.963Z,16.90
2018-09-11T00:37:04.832Z,16.90
2018-09-11T00:39:43.893Z,16.90
2018-09-11T00:42:12.998Z,16.80
2018-09-11T00:44:42.041Z,16.80
2018-09-11T00:47:17.380Z,16.80
2018-09-11T00:49:46.385Z,16.80
2018-09-11T00:52:14.969Z,16.70
2018-09-11T00:54:43.595Z,16.70
2018-09-11T00:57:12.118Z,16.70
2018-09-11T00:59:40.705Z,16.80
2018-09-11T01:02:09.287Z,16.80
2018-09-11T01:04:37.867Z,16.80
2018-09-11T01:07:06.525Z,16.80
2018-09-11T01:09:34.973Z,16.80
2018-09-11T01:12:03.468Z,16.70
2018-09-11T01:14:32.079Z,16.60
2018-09-11T01:17:00.514Z,16.60
2018-09-11T01:19:29.163Z,16.60
2018-09-11T01:21:57.694Z,16.60
2018-09-11T01:24:26.229Z,16.60
2018-09-11T01:26:54.702Z,16.60
2018-09-11T01:29:23.115Z,16.60
2018-09-11T01:31:51.545Z,16.60
2018-09-11T01:34:20.069Z,16.50
2018-09-11T01:36:48.532Z,16.50
2018-09-11T01:39:17.012Z,16.50
2018-09-11T01:41:45.405Z,16.50
2018-09-11T01:44:13.764Z,16.50
2018-09-11T01:46:42.233Z,16.60
2018-09-11T01:49:10.676Z,16.60
2018-09-11T01:51:39.221Z,16.60
2018-09-11T01:54:07.610Z,16.60
2018-09-11T01:56:35.979Z,16.60
2018-09-11T01:59:04.354Z,16.60
2018-09-11T02:01:32.752Z,16.50
2018-09-11T02:04:01.226Z,16.50
2018-09-11T02:06:29.681Z,16.50
2018-09-11T02:08:58.088Z,16.50
2018-09-11T02:11:26.444Z,16.40
2018-09-11T02:13:54.796Z,16.40
2018-09-11T02:16:23.262Z,16.60
2018-09-11T02:18:52.606Z,16.70
2018-09-11T02:21:21.059Z,16.80
2018-09-11T02:23:49.509Z,16.90
2018-09-11T02:26:17.947Z,16.90
2018-09-11T02:28:46.471Z,17.00
2018-09-11T02:31:14.915Z,17.00
2018-09-11T02:33:43.344Z,17.10
2018-09-11T02:36:11.794Z,17.10
2018-09-11T02:38:40.405Z,17.20
2018-09-11T02:41:08.870Z,17.10
2018-09-11T02:43:37.320Z,17.20
2018-09-11T02:46:05.687Z,17.10
2018-09-11T02:48:34.049Z,17.00
2018-09-11T02:51:02.417Z,17.10
2018-09-11T02:53:30.759Z,17.20
2018-09-11T02:55:59.137Z,17.10
2018-09-11T02:58:27.603Z,17.20
2018-09-11T03:00:56.050Z,17.30
2018-09-11T03:03:24.503Z,17.30
2018-09-11T03:05:53.024Z,17.30
2018-09-11T03:08:21.597Z,17.40
2018-09-11T03:10:49.936Z,17.30
2018-09-11T03:13:18.352Z,17.30
2018-09-11T03:15:46.732Z,17.40
2018-09-11T03:18:15.112Z,17.50
2018-09-11T03:20:43.494Z,17.50
2018-09-11T03:23:12.001Z,17.40
2018-09-11T03:25:40.411Z,17.50
2018-09-11T03:28:08.768Z,17.50
2018-09-11T03:30:37.155Z,17.50
2018-09-11T03:33:05.628Z,17.40
2018-09-11T03:35:33.992Z,17.40
2018-09-11T03:38:02.396Z,17.40
2018-09-11T03:40:30.847Z,17.40
2018-09-11T03:42:59.412Z,17.40
2018-09-11T03:45:27.825Z,17.40
2018-09-11T03:47:56.228Z,17.40
2018-09-11T03:50:25.292Z,17.40
2018-09-11T03:52:53.789Z,17.50
2018-09-11T03:55:22.232Z,17.50
2018-09-11T03:57:50.649Z,17.60
2018-09-11T04:00:19.064Z,17.50
2018-09-11T04:02:47.547Z,17.50
2018-09-11T04:05:15.964Z,17.50
2018-09-11T04:07:44.253Z,17.60
2018-09-11T04:10:12.659Z,17.70
2018-09-11T04:12:41.164Z,17.70
2018-09-11T04:15:09.829Z,17.70
2018-09-11T04:17:40.428Z,17.70
2018-09-11T04:20:10.308Z,17.60
2018-09-11T04:22:39.604Z,17.60
2018-09-11T04:25:08.287Z,17.50
2018-09-11T04:27:36.695Z,17.40
2018-09-11T04:30:05.045Z,17.30
2018-09-11T04:32:33.469Z,17.20
2018-09-11T04:35:01.860Z,17.10
2018-09-11T04:37:30.324Z,17.10
2018-09-11T04:39:58.687Z,17.00
2018-09-11T04:42:27.080Z,17.00
2018-09-11T04:44:55.463Z,17.00
2018-09-11T04:47:23.845Z,16.90
2018-09-11T04:52:26.992Z,16.80
2018-09-11T04:54:55.403Z,16.80
2018-09-11T04:57:23.825Z,16.80
2018-09-11T04:59:52.377Z,16.80
2018-09-11T05:02:20.798Z,16.80
2018-09-11T05:04:49.260Z,16.80
2018-09-11T05:07:17.708Z,16.80
2018-09-11T05:09:46.133Z,16.70
2018-09-11T05:12:14.602Z,16.70
2018-09-11T05:14:42.989Z,16.70
2018-09-11T05:17:12.246Z,16.70
2018-09-11T05:19:40.627Z,16.70
2018-09-11T05:22:11.493Z,16.70
2018-09-11T05:24:40.619Z,16.80
2018-09-11T05:27:09.379Z,16.80
2018-09-11T05:29:37.969Z,16.80
2018-09-11T05:32:07.427Z,16.80
2018-09-11T05:34:35.884Z,16.80
2018-09-11T05:37:04.646Z,16.80
2018-09-11T05:39:33.135Z,16.80
2018-09-11T05:42:01.665Z,16.80
2018-09-11T05:44:30.779Z,16.80
2018-09-11T05:46:59.302Z,16.80
2018-09-11T05:49:27.694Z,16.80
2018-09-11T05:51:56.163Z,16.80
2018-09-11T05:54:25.542Z,16.80
2018-09-11T05:56:53.911Z,16.80
2018-09-11T05:59:23.440Z,16.90
2018-09-11T06:01:52.084Z,16.90
2018-09-11T06:04:20.530Z,17.00
2018-09-11T06:06:55.621Z,17.00
2018-09-11T06:09:24.148Z,17.10
2018-09-11T06:11:52.557Z,17.20
2018-09-11T06:14:21.049Z,17.20
2018-09-11T06:16:49.672Z,17.30
2018-09-11T06:19:18.792Z,17.30
2018-09-11T06:21:47.219Z,17.30
2018-09-11T06:24:15.644Z,17.30
2018-09-11T06:26:44.018Z,17.40
2018-09-11T06:29:12.475Z,17.40
2018-09-11T06:31:40.837Z,17.40
2018-09-11T06:34:09.209Z,17.40
2018-09-11T06:36:37.980Z,17.50
2018-09-11T06:39:09.965Z,17.40
2018-09-11T06:41:38.422Z,17.40
2018-09-11T06:44:06.970Z,17.40
2018-09-11T06:46:35.423Z,17.50
2018-09-11T06:49:04.149Z,17.60
2018-09-11T06:51:32.597Z,17.60
2018-09-11T06:54:01.444Z,17.60
2018-09-11T06:56:30.078Z,17.70
2018-09-11T06:59:03.675Z,17.80
2018-09-11T07:01:39.409Z,17.80
2018-09-11T07:04:09.675Z,17.90
2018-09-11T07:06:38.084Z,17.90
2018-09-11T07:09:08.986Z,17.80
2018-09-11T07:11:37.529Z,17.90
2018-09-11T07:14:05.920Z,17.90
2018-09-11T07:16:34.484Z,17.90
2018-09-11T07:19:09.451Z,18.00
2018-09-11T07:21:37.859Z,18.00
2018-09-11T07:24:06.439Z,18.10
2018-09-11T07:26:34.875Z,18.20
2018-09-11T07:29:03.304Z,18.30
2018-09-11T07:31:31.662Z,18.40
2018-09-11T07:34:00.143Z,18.50
2018-09-11T07:36:31.690Z,18.50
2018-09-11T07:39:07.425Z,18.50
2018-09-11T07:41:36.154Z,18.60
2018-09-11T07:44:04.659Z,18.70
2018-09-11T07:46:32.993Z,18.80
2018-09-11T07:49:01.401Z,18.90
2018-09-11T07:51:29.805Z,18.70
2018-09-11T07:53:58.406Z,18.70
2018-09-11T07:56:26.776Z,18.80
2018-09-11T07:58:55.165Z,18.90
2018-09-11T08:01:23.568Z,18.90
2018-09-11T08:03:52.014Z,18.90
2018-09-11T08:06:20.431Z,19.00
2018-09-11T08:08:49.280Z,18.90
2018-09-11T08:11:18.896Z,19.00
2018-09-11T08:13:47.312Z,19.10
2018-09-11T08:16:15.723Z,19.20
2018-09-11T08:18:47.425Z,19.20
2018-09-11T08:21:15.798Z,19.10
2018-09-11T08:23:44.193Z,19.30
2018-09-11T08:26:12.557Z,19.40
2018-09-11T08:28:40.987Z,19.40
2018-09-11T08:31:09.452Z,19.40
2018-09-11T08:33:38.078Z,19.50
2018-09-11T08:36:06.604Z,19.60
2018-09-11T08:38:35.031Z,19.60
2018-09-11T08:41:03.655Z,19.60
2018-09-11T08:43:32.089Z,19.70
2018-09-11T08:46:00.582Z,19.80
2018-09-11T08:48:29.008Z,19.70
2018-09-11T08:50:57.458Z,19.70
2018-09-11T08:53:30.994Z,19.70
2018-09-11T08:55:59.714Z,19.70
2018-09-11T08:58:28.442Z,19.80
2018-09-11T09:00:57.530Z,19.80
2018-09-11T09:03:27.114Z,19.70
2018-09-11T09:05:56.568Z,19.90
2018-09-11T09:08:25.632Z,20.10
2018-09-11T09:10:54.832Z,20.20
2018-09-11T09:13:23.947Z,20.30
2018-09-11T09:15:55.118Z,20.30
2018-09-11T09:18:24.191Z,20.20
2018-09-11T09:20:52.704Z,20.20
2018-09-11T09:23:21.032Z,20.40
2018-09-11T09:25:49.527Z,20.40
2018-09-11T09:28:18.275Z,20.40
2018-09-11T09:30:46.741Z,20.40
2018-09-11T09:33:15.088Z,20.50
2018-09-11T09:35:43.502Z,20.40
2018-09-11T09:38:11.847Z,20.40
2018-09-11T09:40:40.196Z,20.60
2018-09-11T09:43:08.559Z,20.60
2018-09-11T09:45:36.972Z,20.50
2018-09-11T09:48:05.412Z,20.60
2018-09-11T09:50:33.947Z,20.60
2018-09-11T09:53:02.451Z,20.80
2018-09-11T09:55:30.901Z,20.90
2018-09-11T09:57:59.320Z,20.90
2018-09-11T10:00:33.230Z,21.00
2018-09-11T10:03:01.674Z,21.30
2018-09-11T10:05:30.316Z,21.20
2018-09-11T10:07:58.726Z,21.30
2018-09-11T10:10:27.306Z,21.60
2018-09-11T10:12:56.343Z,21.80
2018-09-11T10:15:24.764Z,21.70
2018-09-11T10:17:53.161Z,21.60
2018-09-11T10:20:27.361Z,21.50
2018-09-11T10:22:55.803Z,21.50
2018-09-11T10:25:24.507Z,21.20
2018-09-11T10:27:52.940Z,21.30
2018-09-11T10:30:21.571Z,21.50
2018-09-11T10:32:49.970Z,21.50
2018-09-11T10:35:18.535Z,21.80
2018-09-11T10:37:47.190Z,21.90
2018-09-11T10:40:15.782Z,21.90
2018-09-11T10:42:44.163Z,22.20
2018-09-11T10:45:13.341Z,22.40
2018-09-11T10:47:41.805Z,22.50
2018-09-11T10:50:10.214Z,22.60
2018-09-11T10:52:38.776Z,22.60
2018-09-11T10:55:07.455Z,22.40
2018-09-11T10:57:35.835Z,22.40
2018-09-11T11:00:04.249Z,22.30
2018-09-11T11:02:32.676Z,22.20
2018-09-11T11:05:01.114Z,22.20
2018-09-11T11:07:29.508Z,22.10
2018-09-11T11:09:57.981Z,22.00
2018-09-11T11:12:26.655Z,21.90
2018-09-11T11:14:55.299Z,21.90
2018-09-11T13:27:52.743Z,22.50
2018-09-11T13:30:21.068Z,22.20
2018-09-11T13:35:41.324Z,21.80
2018-09-11T13:38:09.732Z,21.70
2018-09-11T13:40:38.120Z,21.70
2018-09-11T13:43:06.861Z,21.50
2018-09-11T13:45:35.272Z,21.60
2018-09-11T13:48:03.758Z,21.60
2018-09-11T13:50:32.496Z,21.60
2018-09-11T13:53:01.974Z,21.60
2018-09-11T13:55:30.231Z,21.60
2018-09-11T13:57:58.694Z,21.40
2018-09-11T14:00:27.163Z,21.40
2018-09-11T14:02:55.525Z,21.30
2018-09-11T14:05:23.956Z,21.30
2018-09-11T14:07:52.342Z,21.30
2018-09-11T14:10:20.926Z,21.30
2018-09-11T14:12:49.312Z,21.50
2018-09-11T14:15:19.937Z,21.50
2018-09-11T14:17:49.162Z,21.30
2018-09-11T14:20:17.644Z,21.30
2018-09-11T14:22:48.087Z,21.20
2018-09-11T14:25:16.458Z,21.20
2018-09-11T14:27:44.866Z,21.30
2018-09-11T14:30:13.239Z,21.30
2018-09-11T14:32:41.651Z,21.40
2018-09-11T14:35:10.074Z,21.50
2018-09-11T14:37:38.784Z,21.60
2018-09-11T14:40:07.093Z,21.60
2018-09-11T14:42:35.498Z,21.50
2018-09-11T14:45:03.831Z,21.50
2018-09-11T14:47:37.450Z,21.50
2018-09-11T14:50:06.727Z,21.50
2018-09-11T14:52:35.221Z,21.30
2018-09-11T14:55:03.570Z,21.30
2018-09-11T14:57:31.987Z,21.30
2018-09-11T15:00:00.315Z,21.30
2018-09-11T15:02:29.074Z,21.20
2018-09-11T15:04:58.360Z,21.10
2018-09-11T15:07:27.162Z,21.20
2018-09-11T15:09:55.704Z,21.20
2018-09-11T15:12:24.127Z,21.20
2018-09-11T15:14:52.711Z,21.00
2018-09-11T15:17:22.909Z,21.00
2018-09-11T15:19:51.333Z,21.10
2018-09-11T15:22:19.894Z,21.20
2018-09-11T15:24:48.203Z,21.00
2018-09-11T15:27:17.127Z,21.00
2018-09-11T15:29:45.600Z,21.00
2018-09-11T15:32:14.407Z,21.00
2018-09-11T15:34:42.933Z,21.20
2018-09-11T15:37:11.585Z,21.10
2018-09-11T15:39:39.931Z,21.00
2018-09-11T15:42:08.683Z,21.00
2018-09-11T15:44:37.093Z,21.00
2018-09-11T15:47:05.559Z,21.20
2018-09-11T15:49:34.027Z,21.30
2018-09-11T15:52:02.537Z,21.60
2018-09-11T15:54:30.894Z,21.60
2018-09-11T15:56:59.313Z,21.60
2018-09-11T15:59:27.729Z,21.60
2018-09-11T16:01:56.136Z,21.40
2018-09-11T16:04:24.719Z,21.10
2018-09-11T16:06:53.525Z,21.00
2018-09-11T16:09:26.634Z,20.90
2018-09-11T16:11:55.063Z,20.80
2018-09-11T16:14:23.674Z,20.80
2018-09-11T16:16:53.145Z,20.60
2018-09-11T16:19:22.373Z,20.40
2018-09-11T16:21:51.258Z,20.40
2018-09-11T16:24:20.063Z,20.30
2018-09-11T16:29:35.017Z,20.20
2018-09-11T16:32:03.897Z,20.30
2018-09-11T16:34:33.830Z,20.30
2018-09-11T16:37:02.927Z,20.20
2018-09-11T16:39:35.929Z,20.30
2018-09-11T16:42:19.908Z,20.30
2018-09-11T16:44:56.191Z,19.40
2018-09-11T16:47:24.582Z,20.20
2018-09-11T16:49:52.947Z,20.10
2018-09-11T16:52:22.354Z,20.20
2018-09-11T16:54:50.797Z,20.10
2018-09-11T16:57:19.536Z,20.10
2018-09-11T16:59:48.210Z,20.10
2018-09-11T17:02:16.697Z,20.20
2018-09-11T17:04:45.355Z,20.10
2018-09-11T17:07:13.898Z,20.20
2018-09-11T17:09:42.260Z,20.20
2018-09-11T17:12:10.733Z,20.30
2018-09-11T17:14:39.233Z,20.20
2018-09-11T17:17:19.239Z,20.10
2018-09-11T17:19:49.149Z,20.10
2018-09-11T17:22:19.929Z,20.10
2018-09-11T17:24:59.231Z,20.00
2018-09-11T17:27:27.813Z,20.00
2018-09-11T17:29:58.542Z,20.00
2018-09-11T17:32:35.172Z,20.00
2018-09-11T17:35:03.625Z,19.90
2018-09-11T17:37:32.050Z,20.00
2018-09-11T17:40:01.011Z,19.90
2018-09-11T17:42:34.249Z,19.90
2018-09-11T17:45:03.155Z,20.00
2018-09-11T17:47:52.036Z,19.90
2018-09-11T17:50:21.228Z,19.80
2018-09-11T17:52:50.871Z,19.80
2018-09-11T17:55:25.681Z,19.70
2018-09-11T17:57:54.846Z,19.60
2018-09-11T18:00:28.547Z,19.60
2018-09-11T18:03:07.010Z,19.60
2018-09-11T18:05:36.097Z,19.50
2018-09-11T18:08:05.422Z,19.50
2018-09-11T18:10:35.072Z,19.40
2018-09-11T18:13:04.885Z,19.40
2018-09-11T18:15:34.139Z,19.40
2018-09-11T18:18:06.186Z,19.40
2018-09-11T18:20:35.423Z,19.40
2018-09-11T18:23:04.457Z,19.40
2018-09-11T18:25:37.745Z,19.30
2018-09-11T18:28:07.764Z,19.30
2018-09-11T18:30:37.158Z,19.30
2018-09-11T18:33:10.756Z,19.30
2018-09-11T18:35:39.469Z,19.30
2018-09-11T18:38:08.146Z,19.30
2018-09-11T18:40:38.090Z,19.40
2018-09-11T18:43:07.614Z,19.40
2018-09-11T18:45:37.167Z,19.40
2018-09-11T18:48:06.615Z,19.40
2018-09-11T18:50:36.161Z,19.40
2018-09-11T18:53:05.227Z,19.30
2018-09-11T18:55:40.276Z,19.30
2018-09-11T18:58:08.964Z,19.30
2018-09-11T19:00:38.343Z,19.30
2018-09-11T19:03:06.833Z,19.30
2018-09-11T19:05:35.428Z,19.20
2018-09-11T19:08:04.782Z,19.30
2018-09-11T19:10:34.448Z,19.30
2018-09-11T19:13:26.276Z,19.20
2018-09-11T19:15:54.996Z,19.20
2018-09-11T19:19:05.987Z,19.20
2018-09-11T19:24:10.048Z,19.20
2018-09-11T19:26:39.666Z,19.20
2018-09-11T19:29:10.708Z,19.20
2018-09-11T19:31:48.375Z,19.20
2018-09-11T19:34:17.759Z,19.30
2018-09-11T19:36:46.816Z,19.30
2018-09-11T19:39:21.627Z,19.30
2018-09-11T19:41:51.958Z,19.30
2018-09-11T19:44:27.330Z,19.30
2018-09-11T19:46:59.204Z,19.30
2018-09-11T19:49:29.933Z,19.30
2018-09-11T19:52:00.030Z,19.20
2018-09-11T19:57:21.282Z,19.30
2018-09-11T19:59:51.365Z,19.30
2018-09-11T20:02:34.214Z,19.30
2018-09-11T20:05:25.941Z,19.20
2018-09-11T20:07:58.466Z,19.30
2018-09-11T20:10:26.897Z,19.20
2018-09-11T20:12:55.565Z,19.30
2018-09-11T20:15:23.970Z,19.20
2018-09-11T20:17:52.481Z,19.20
2018-09-11T20:20:23.938Z,19.30
2018-09-11T20:22:52.642Z,19.30
2018-09-11T20:28:19.616Z,19.20
2018-09-11T20:31:05.677Z,19.20
2018-09-11T20:33:34.081Z,19.20
2018-09-11T20:36:11.105Z,19.20
2018-09-11T20:38:51.153Z,19.20
2018-09-11T20:41:31.582Z,19.20
2018-09-11T20:44:01.239Z,19.20
2018-09-11T20:46:30.077Z,19.20
2018-09-11T20:49:06.438Z,19.20
2018-09-11T20:51:44.099Z,19.20
2018-09-11T20:54:14.357Z,19.20
2018-09-11T20:56:47.825Z,19.20
2018-09-11T21:02:28.981Z,19.20
2018-09-11T21:04:58.169Z,19.20
2018-09-11T21:07:42.076Z,19.20
2018-09-11T21:10:10.529Z,19.20
2018-09-11T21:12:40.818Z,19.20
2018-09-11T21:15:09.897Z,19.20
2018-09-11T21:17:38.417Z,19.20
2018-09-11T21:20:08.209Z,19.20
2018-09-11T21:22:37.045Z,19.10
2018-09-11T21:25:07.042Z,19.20
2018-09-11T21:27:35.568Z,19.20
2018-09-11T21:33:01.374Z,19.20
2018-09-11T21:35:34.196Z,19.30
2018-09-11T21:38:14.681Z,19.20
2018-09-11T21:41:02.329Z,19.20
2018-09-11T21:51:57.482Z,19.10
2018-09-11T21:58:31.622Z,19.10
2018-09-11T22:05:05.953Z,19.10
2018-09-11T22:11:15.610Z,19.10
2018-09-11T22:14:08.938Z,19.10
2018-09-11T22:16:51.105Z,19.10
2018-09-11T22:19:52.502Z,19.10
2018-09-11T22:22:53.037Z,19.10
2018-09-11T22:25:35.746Z,19.10
2018-09-11T22:29:28.407Z,19.20
2018-09-11T22:32:29.938Z,19.20
2018-09-11T22:37:58.366Z,19.20
2018-09-11T22:40:55.500Z,19.10
2018-09-11T22:49:04.700Z,19.10
2018-09-11T22:55:05.730Z,19.10
2018-09-11T23:45:16.670Z,19.10
2018-09-11T23:48:00.702Z,19.10
2018-09-11T23:50:29.936Z,19.10
2018-09-11T23:53:00.216Z,19.10
2018-09-11T23:55:29.228Z,19.10
2018-09-11T23:57:59.693Z,19.10
